Aviation Digital Data Service (ADDS)

Output produced by METARs form (2038 UTC 22 May 2015)
found at http://aviationweather.gov/adds/metars/
 
KARA 221953Z AUTO VRB04KT 10SM OVC021 26/21 A3016 RMK AO2 SLP210 T02610206